Time;durP1;ratioP1;P1;durP2;ratioP2;P2;SDS_P1;SDS_P2;PMS_P1;PMS_P2;Temp;Humidity;BMP_temperature;BMP_pressure;BME280_temperature;BME280_humidity;BME280_pressure;Samples;Min_cycle;Max_cycle;Signal;HPM_P1;HPM_P2
2023/03/01 00:01:15;;;;;;;25.33;12.18;;;;;;;1.23;61.58;100906.19;4934608;28;20051;-89
2023/03/01 00:03:42;;;;;;;25.60;11.23;;;;;;;1.18;61.50;100907.25;4951002;28;20490;-91
2023/03/01 00:06:10;;;;;;;28.05;12.05;;;;;;;1.28;61.46;100906.06;4965257;28;20113;-90
2023/03/01 00:08:37;;;;;;;28.70;12.48;;;;;;;1.24;61.44;100907.03;4964739;28;20042;-89
2023/03/01 00:11:06;;;;;;;25.75;11.77;;;;;;;1.25;61.98;100917.47;4959705;28;20055;-90
2023/03/01 00:13:34;;;;;;;28.45;12.23;;;;;;;1.18;61.90;100907.25;4949842;28;20129;-89
2023/03/01 00:16:06;;;;;;;26.23;11.45;;;;;;;1.19;61.83;100911.56;4961915;28;20043;-90
2023/03/01 00:18:33;;;;;;;24.95;11.85;;;;;;;1.16;61.73;100911.69;4964497;28;20042;-90
2023/03/01 00:21:00;;;;;;;24.05;11.27;;;;;;;1.05;62.43;100918.09;4964279;28;20117;-90
2023/03/01 00:23:27;;;;;;;25.73;11.93;;;;;;;1.07;62.11;100920.69;4958300;28;20038;-90
2023/03/01 00:25:55;;;;;;;29.65;13.18;;;;;;;1.05;62.41;100919.88;4934127;28;20042;-90
2023/03/01 00:28:21;;;;;;;26.08;11.55;;;;;;;1.15;61.99;100921.28;4959956;28;20058;-90
2023/03/01 00:30:48;;;;;;;27.27;11.90;;;;;;;1.08;62.39;100925.84;4933054;28;20054;-90
2023/03/01 00:33:15;;;;;;;26.67;12.18;;;;;;;1.18;62.04;100926.41;4935570;28;20050;-91
2023/03/01 00:35:42;;;;;;;25.33;12.23;;;;;;;1.10;62.29;100930.19;4933754;28;20526;-90
2023/03/01 00:38:09;;;;;;;26.70;13.18;;;;;;;1.04;62.55;100926.00;4933177;28;20105;-90
2023/03/01 00:40:36;;;;;;;30.23;12.52;;;;;;;1.14;62.42;100921.34;4951383;28;20103;-91
2023/03/01 00:43:03;;;;;;;28.10;12.50;;;;;;;0.90;63.11;100923.81;4939033;28;20046;-91
2023/03/01 00:45:31;;;;;;;29.23;12.77;;;;;;;1.04;62.37;100920.75;4942439;28;20068;-90
2023/03/01 00:47:57;;;;;;;27.27;13.57;;;;;;;0.96;62.88;100935.84;4946798;28;20039;-90
2023/03/01 00:50:25;;;;;;;25.00;12.52;;;;;;;0.99;62.53;100930.50;4933257;28;20046;-90
2023/03/01 00:52:55;;;;;;;27.13;12.77;;;;;;;0.94;62.64;100928.06;4949376;28;20047;-90
2023/03/01 00:55:22;;;;;;;28.17;11.43;;;;;;;1.11;61.88;100921.44;4931800;28;20046;-89
2023/03/01 00:57:49;;;;;;;27.20;12.05;;;;;;;1.08;62.34;100940.69;4950215;28;20053;-91
2023/03/01 01:00:17;;;;;;;29.00;13.60;;;;;;;0.94;63.02;100930.69;4945471;28;20046;-90
2023/03/01 01:02:44;;;;;;;30.45;13.85;;;;;;;0.88;63.22;100937.84;4974640;28;20050;-90
2023/03/01 01:05:11;;;;;;;28.17;13.05;;;;;;;0.89;63.10;100931.69;4948550;28;20670;-86
2023/03/01 01:07:38;;;;;;;28.35;12.10;;;;;;;1.07;62.43;100937.22;4947952;28;20054;-91
2023/03/01 01:10:05;;;;;;;27.17;12.13;;;;;;;0.99;62.98;100928.78;4946641;28;20105;-90
2023/03/01 01:12:32;;;;;;;27.17;13.05;;;;;;;0.98;62.95;100927.03;4923085;28;20462;-89
2023/03/01 01:14:59;;;;;;;29.67;13.35;;;;;;;0.85;63.11;100908.28;4946628;28;20047;-90
2023/03/01 01:17:26;;;;;;;31.60;13.57;;;;;;;0.83;63.37;100909.22;4973123;28;20046;-91
2023/03/01 01:19:52;;;;;;;23.90;11.95;;;;;;;0.92;62.89;100901.09;4973318;28;20089;-86
2023/03/01 01:22:19;;;;;;;28.02;12.43;;;;;;;0.75;63.58;100896.38;4952962;28;20050;-90
2023/03/01 01:24:46;;;;;;;29.58;12.85;;;;;;;0.77;63.77;100897.19;4947981;28;20062;-90
2023/03/01 01:27:13;;;;;;;28.35;12.00;;;;;;;0.94;63.02;100887.97;4960857;28;21057;-91
2023/03/01 01:29:39;;;;;;;29.88;13.32;;;;;;;0.96;62.78;100880.94;4943144;28;20043;-91
2023/03/01 01:32:06;;;;;;;29.52;13.00;;;;;;;0.95;62.92;100882.69;4948381;28;20057;-90
2023/03/01 01:34:33;;;;;;;29.33;12.98;;;;;;;0.92;62.97;100888.03;4947572;28;20042;-90
2023/03/01 01:37:02;;;;;;;26.83;12.50;;;;;;;1.00;62.62;100883.41;4958893;28;20605;-91
2023/03/01 01:39:29;;;;;;;33.80;13.35;;;;;;;0.88;63.33;100875.09;4956557;28;20055;-90
2023/03/01 01:41:56;;;;;;;23.10;12.13;;;;;;;0.98;62.79;100877.34;4957930;28;20054;-89
2023/03/01 01:44:26;;;;;;;27.67;13.00;;;;;;;0.92;63.25;100868.88;4941803;28;20078;-90
2023/03/01 01:47:04;;;;;;;26.35;12.02;;;;;;;0.92;63.13;100880.19;4943507;28;20051;-90
2023/03/01 01:49:41;;;;;;;30.33;12.95;;;;;;;0.88;63.21;100860.25;4944176;28;20146;-90
2023/03/01 01:52:25;;;;;;;26.80;12.30;;;;;;;0.83;63.38;100862.16;4936582;28;20058;-89
2023/03/01 01:54:58;;;;;;;27.38;12.02;;;;;;;0.90;62.95;100858.44;4943578;28;20073;-89
2023/03/01 01:57:47;;;;;;;29.75;13.75;;;;;;;0.84;63.28;100854.28;4971977;28;20074;-90
2023/03/01 02:00:22;;;;;;;30.52;13.95;;;;;;;0.87;63.12;100848.09;4945756;28;20055;-90
2023/03/01 02:02:54;;;;;;;31.35;13.65;;;;;;;0.80;63.33;100842.19;4947026;28;20042;-90
2023/03/01 02:05:32;;;;;;;31.20;12.88;;;;;;;0.85;63.29;100849.91;4945543;28;20555;-90
2023/03/01 02:07:59;;;;;;;28.52;13.27;;;;;;;0.84;63.09;100841.19;4943512;28;20042;-90
2023/03/01 02:10:27;;;;;;;34.65;15.18;;;;;;;0.76;63.29;100842.34;4955530;28;20051;-89
2023/03/01 02:12:55;;;;;;;27.42;11.93;;;;;;;0.83;63.12;100836.00;4929948;28;20043;-89
2023/03/01 02:15:23;;;;;;;29.23;13.75;;;;;;;0.83;63.12;100836.84;4962567;28;20525;-91
2023/03/01 02:17:50;;;;;;;25.50;12.88;;;;;;;0.84;63.07;100833.34;4962188;28;20074;-90
2023/03/01 02:20:34;;;;;;;30.92;12.80;;;;;;;0.83;63.45;100823.78;4942343;28;20050;-90
2023/03/01 02:23:01;;;;;;;30.00;13.07;;;;;;;0.84;63.47;100827.25;4947955;28;20055;-86
2023/03/01 02:25:45;;;;;;;26.65;13.63;;;;;;;0.84;63.36;100819.41;4935694;28;20065;-91
2023/03/01 02:28:15;;;;;;;35.25;13.82;;;;;;;0.91;63.43;100830.53;4937627;28;20426;-90
2023/03/01 02:33:35;;;;;;;28.48;13.95;;;;;;;0.88;63.10;100814.94;4948006;28;20055;-90
2023/03/01 02:36:15;;;;;;;28.45;13.38;;;;;;;0.90;63.23;100811.38;4954018;28;20061;-90
2023/03/01 02:38:42;;;;;;;29.40;13.73;;;;;;;0.89;63.32;100804.44;4953511;28;20056;-91
2023/03/01 02:41:12;;;;;;;30.88;13.52;;;;;;;0.93;63.06;100808.66;4945538;28;20046;-91
2023/03/01 02:43:38;;;;;;;32.20;13.57;;;;;;;0.88;63.32;100807.97;4950612;28;20508;-91
2023/03/01 02:46:12;;;;;;;29.45;12.60;;;;;;;0.86;63.13;100813.22;4934417;28;20057;-91
2023/03/01 02:48:45;;;;;;;31.80;13.10;;;;;;;0.92;62.96;100804.34;4941292;28;20043;-90
2023/03/01 02:51:22;;;;;;;30.92;13.23;;;;;;;0.81;63.04;100795.97;4951191;28;20043;-91
2023/03/01 02:53:52;;;;;;;36.22;12.77;;;;;;;0.84;63.22;100807.22;4946263;28;20042;-90
2023/03/01 02:56:19;;;;;;;28.15;13.77;;;;;;;0.88;63.05;100807.97;4951114;28;20395;-91
2023/03/01 02:58:50;;;;;;;31.90;13.70;;;;;;;0.84;63.22;100798.50;4933278;28;20057;-91
2023/03/01 03:01:19;;;;;;;29.05;12.88;;;;;;;0.87;62.91;100795.81;4968612;28;20063;-90
2023/03/01 03:03:46;;;;;;;30.83;13.65;;;;;;;0.75;63.41;100789.19;4937405;28;20114;-90
2023/03/01 03:06:14;;;;;;;33.38;13.90;;;;;;;0.89;62.95;100788.75;4945094;28;20103;-91
2023/03/01 03:08:41;;;;;;;32.25;13.50;;;;;;;0.86;62.98;100781.00;4940310;28;20046;-90
2023/03/01 03:11:08;;;;;;;27.10;12.07;;;;;;;0.86;62.87;100784.47;4949880;28;20093;-91
2023/03/01 03:13:35;;;;;;;33.72;13.77;;;;;;;0.86;63.02;100781.00;4952487;28;20042;-90
2023/03/01 03:16:02;;;;;;;29.40;13.80;;;;;;;0.84;63.04;100778.44;4973410;28;20133;-91
2023/03/01 03:18:30;;;;;;;28.23;13.55;;;;;;;0.74;63.28;100779.66;4934297;28;20466;-91
2023/03/01 03:20:57;;;;;;;30.13;13.32;;;;;;;0.77;63.04;100779.56;4956456;28;20968;-90
2023/03/01 03:23:25;;;;;;;28.20;12.80;;;;;;;0.88;62.64;100779.19;4946771;28;20836;-90
2023/03/01 03:25:51;;;;;;;34.03;14.52;;;;;;;0.83;62.66;100778.50;4931383;28;20042;-90
2023/03/01 03:28:19;;;;;;;28.17;13.75;;;;;;;0.79;63.11;100784.72;4933363;28;20093;-89
2023/03/01 03:30:46;;;;;;;33.70;13.50;;;;;;;0.81;62.80;100777.69;4941147;28;20081;-90
2023/03/01 03:33:14;;;;;;;27.38;12.75;;;;;;;0.78;63.02;100778.63;4960959;28;20050;-90
2023/03/01 03:35:46;;;;;;;33.50;14.65;;;;;;;0.80;62.95;100770.75;4936576;28;20050;-90
2023/03/01 03:38:15;;;;;;;30.13;14.60;;;;;;;0.76;62.82;100769.97;4929821;28;20054;-90
2023/03/01 03:40:44;;;;;;;33.25;13.70;;;;;;;0.82;63.02;100771.56;4932735;28;20066;-90
2023/03/01 03:43:17;;;;;;;34.08;13.82;;;;;;;0.72;63.24;100763.16;4951576;28;20685;-90
2023/03/01 03:45:46;;;;;;;29.73;14.02;;;;;;;0.77;62.97;100760.41;4949404;28;20042;-90
2023/03/01 03:48:13;;;;;;;30.58;13.90;;;;;;;0.82;62.99;100761.97;4958519;28;20129;-91
2023/03/01 03:50:41;;;;;;;30.73;14.75;;;;;;;0.80;62.66;100766.38;4925003;28;20049;-92
2023/03/01 03:53:10;;;;;;;28.48;14.05;;;;;;;0.73;63.27;100758.78;4926716;28;20600;-91
2023/03/01 03:55:38;;;;;;;28.27;14.15;;;;;;;0.67;63.49;100757.22;4935633;28;20050;-91
2023/03/01 03:58:08;;;;;;;29.88;14.23;;;;;;;0.75;63.25;100754.38;4934418;28;20073;-91
2023/03/01 04:00:40;;;;;;;27.70;13.90;;;;;;;0.70;63.36;100751.06;4936881;28;20062;-91
2023/03/01 04:03:08;;;;;;;33.40;14.03;;;;;;;0.71;63.76;100750.97;4950986;28;20070;-90
2023/03/01 04:05:36;;;;;;;28.35;14.45;;;;;;;0.58;64.41;100750.53;4934687;28;20984;-91
2023/03/01 04:08:06;;;;;;;31.05;13.27;;;;;;;0.62;64.21;100754.75;4935648;28;20047;-90
2023/03/01 04:10:42;;;;;;;34.00;13.82;;;;;;;0.59;64.44;100747.03;4948048;28;20046;-91
2023/03/01 04:13:11;;;;;;;33.00;13.80;;;;;;;0.56;64.51;100741.91;4949348;28;20050;-89
2023/03/01 04:15:39;;;;;;;28.98;14.00;;;;;;;0.53;64.37;100752.44;4944651;28;20495;-90
2023/03/01 04:18:06;;;;;;;30.30;14.35;;;;;;;0.48;64.62;100745.66;4941543;28;20394;-91
2023/03/01 04:20:34;;;;;;;30.27;13.18;;;;;;;0.78;66.40;100743.81;4934462;28;20045;-91
2023/03/01 04:23:12;;;;;;;34.63;14.35;;;;;;;0.69;65.03;100751.94;4950114;28;20045;-91
2023/03/01 04:25:45;;;;;;;31.38;14.68;;;;;;;0.62;64.60;100757.38;4969243;28;20491;-91
2023/03/01 04:28:12;;;;;;;28.05;14.05;;;;;;;0.71;64.38;100748.38;4948686;28;20687;-90
2023/03/01 04:30:39;;;;;;;32.25;13.80;;;;;;;0.56;64.96;100749.75;4932924;28;20046;-91
2023/03/01 04:33:07;;;;;;;30.90;14.45;;;;;;;0.60;64.21;100747.88;4950395;28;20226;-90
2023/03/01 04:35:37;;;;;;;30.00;15.15;;;;;;;0.58;64.22;100753.16;4911561;28;20473;-91
2023/03/01 04:38:05;;;;;;;32.20;13.88;;;;;;;0.59;64.50;100754.88;4922806;28;20049;-91
2023/03/01 04:40:32;;;;;;;36.97;18.45;;;;;;;0.48;65.00;100745.66;4945338;28;20237;-91
2023/03/01 04:42:59;;;;;;;40.60;20.02;;;;;;;0.46;65.05;100753.56;4929702;28;20443;-90
2023/03/01 04:45:26;;;;;;;36.17;15.73;;;;;;;0.49;64.78;100750.84;4940692;28;20047;-90
2023/03/01 04:47:53;;;;;;;32.75;15.40;;;;;;;0.55;64.32;100747.16;4931656;28;20046;-91
2023/03/01 04:50:23;;;;;;;33.38;15.13;;;;;;;0.61;63.83;100755.69;4947376;28;20125;-92
2023/03/01 04:52:50;;;;;;;35.88;15.00;;;;;;;0.59;64.17;100756.63;4948334;28;20058;-91
2023/03/01 04:55:17;;;;;;;30.10;13.30;;;;;;;0.62;63.65;100759.16;4944222;28;20131;-89
2023/03/01 04:57:44;;;;;;;31.80;15.63;;;;;;;0.52;64.05;100748.13;4961097;28;20050;-90
2023/03/01 05:00:22;;;;;;;34.05;14.95;;;;;;;0.36;64.12;100752.16;4934132;28;20081;-89
2023/03/01 05:02:54;;;;;;;33.30;15.13;;;;;;;0.41;64.03;100751.09;4951032;28;20116;-90
2023/03/01 05:05:36;;;;;;;32.20;13.73;;;;;;;0.42;63.84;100751.94;4972423;28;20510;-87
2023/03/01 05:08:07;;;;;;;37.67;15.43;;;;;;;0.41;64.12;100752.84;4927495;28;20039;-90
2023/03/01 05:10:35;;;;;;;37.55;14.70;;;;;;;0.38;63.90;100750.31;4965848;28;20588;-90
2023/03/01 05:13:03;;;;;;;35.97;15.05;;;;;;;0.52;63.26;100749.91;4933515;28;20065;-90
2023/03/01 05:15:31;;;;;;;32.92;15.13;;;;;;;0.45;63.51;100751.84;4945034;28;20043;-88
2023/03/01 05:17:59;;;;;;;37.95;15.50;;;;;;;0.55;63.19;100758.47;4967930;28;20042;-91
2023/03/01 05:20:26;;;;;;;29.67;14.65;;;;;;;0.48;63.57;100753.50;4925119;28;20042;-84
2023/03/01 05:22:58;;;;;;;38.30;14.82;;;;;;;0.45;63.73;100746.63;4929919;28;20053;-88
2023/03/01 05:25:32;;;;;;;33.97;13.63;;;;;;;0.28;64.08;100754.13;4884883;28;20142;-93
2023/03/01 05:28:04;;;;;;;36.27;14.67;;;;;;;0.33;63.91;100760.06;4913712;29;20043;-94
2023/03/01 05:30:34;;;;;;;34.85;15.55;;;;;;;0.25;64.38;100757.69;4912997;29;20435;-93
2023/03/01 05:33:01;;;;;;;31.17;14.35;;;;;;;0.23;64.08;100756.91;4910859;28;20066;-93
2023/03/01 05:35:29;;;;;;;34.05;14.98;;;;;;;0.22;64.20;100763.84;4929271;29;20063;-94
2023/03/01 05:37:56;;;;;;;35.95;15.40;;;;;;;0.20;64.38;100746.53;4896650;29;20055;-82
2023/03/01 05:40:23;;;;;;;37.13;14.95;;;;;;;0.27;64.14;100750.66;4913139;29;20062;-82
2023/03/01 05:42:55;;;;;;;32.22;13.23;;;;;;;0.26;64.18;100755.94;4898434;29;20495;-83
2023/03/01 05:45:23;;;;;;;37.00;14.73;;;;;;;0.29;63.89;100748.88;4908569;29;20048;-83
2023/03/01 05:47:50;;;;;;;41.60;15.48;;;;;;;0.20;64.44;100751.75;4893996;29;20139;-82
2023/03/01 05:50:18;;;;;;;37.15;15.65;;;;;;;0.21;64.27;100749.09;4897456;28;20164;-83
2023/03/01 05:52:54;;;;;;;30.75;14.00;;;;;;;0.21;64.38;100745.63;4913677;28;20043;-83
2023/03/01 05:55:21;;;;;;;34.67;14.70;;;;;;;0.17;64.64;100744.00;4957362;28;20054;-83
2023/03/01 05:57:49;;;;;;;32.70;14.00;;;;;;;0.21;64.17;100738.66;4928291;28;20058;-83
2023/03/01 06:00:17;;;;;;;35.15;14.65;;;;;;;0.15;64.73;100743.19;4974166;28;20494;-82
2023/03/01 06:02:44;;;;;;;37.67;16.00;;;;;;;0.17;64.40;100752.69;4942744;28;20097;-83
2023/03/01 06:05:12;;;;;;;34.85;14.50;;;;;;;0.10;64.70;100753.81;4947286;28;20487;-82
2023/03/01 06:07:40;;;;;;;34.92;15.07;;;;;;;0.09;64.86;100746.88;4926929;28;20051;-83
2023/03/01 06:10:09;;;;;;;34.05;15.75;;;;;;;0.25;64.09;100744.63;4950346;28;20042;-83
2023/03/01 06:12:37;;;;;;;34.42;15.00;;;;;;;0.22;64.38;100736.88;4972890;28;20042;-83
2023/03/01 06:15:05;;;;;;;31.55;14.27;;;;;;;0.13;64.70;100745.03;4957054;28;20061;-83
2023/03/01 06:17:37;;;;;;;31.52;15.00;;;;;;;0.12;64.85;100744.16;4972339;28;20124;-82
2023/03/01 06:20:05;;;;;;;36.53;15.32;;;;;;;0.11;64.38;100739.00;4957768;28;20042;-83
2023/03/01 06:22:32;;;;;;;32.50;13.95;;;;;;;0.20;64.18;100751.75;4970683;28;20050;-83
2023/03/01 06:24:59;;;;;;;33.85;16.08;;;;;;;0.23;64.17;100751.69;4946068;28;20047;-83
2023/03/01 06:27:25;;;;;;;34.55;14.52;;;;;;;0.06;64.72;100746.97;4974187;28;20054;-82
2023/03/01 06:29:52;;;;;;;36.88;16.08;;;;;;;0.05;64.59;100747.88;4963644;28;20467;-83
2023/03/01 06:32:19;;;;;;;32.47;15.13;;;;;;;0.25;63.98;100742.00;4964732;28;20524;-84
2023/03/01 06:34:46;;;;;;;33.08;14.18;;;;;;;0.20;64.38;100744.78;4944568;28;20129;-83
2023/03/01 06:37:12;;;;;;;32.13;14.32;;;;;;;0.30;63.84;100752.31;4950711;28;20073;-83
2023/03/01 06:39:39;;;;;;;34.15;14.85;;;;;;;0.15;64.43;100745.81;4959742;28;20045;-83
2023/03/01 06:42:07;;;;;;;41.28;15.75;;;;;;;0.22;64.06;100745.56;4956942;28;20059;-83
2023/03/01 06:44:34;;;;;;;32.38;14.63;;;;;;;0.24;63.99;100735.09;4960257;28;20066;-84
2023/03/01 06:47:01;;;;;;;35.67;14.90;;;;;;;0.36;63.79;100741.69;4945841;28;20066;-83
2023/03/01 06:49:28;;;;;;;35.42;14.27;;;;;;;0.37;64.01;100733.78;4961620;28;20116;-84
2023/03/01 06:51:54;;;;;;;33.53;14.95;;;;;;;0.33;63.62;100729.59;4948026;28;20113;-83
2023/03/01 06:54:24;;;;;;;34.25;15.68;;;;;;;0.35;63.52;100734.75;4977289;28;20046;-83
2023/03/01 06:56:51;;;;;;;36.47;14.88;;;;;;;0.40;63.85;100741.53;4944688;28;20390;-83
2023/03/01 06:59:18;;;;;;;36.67;15.38;;;;;;;0.50;63.22;100731.63;4975613;28;20038;-84
2023/03/01 07:01:44;;;;;;;37.40;15.48;;;;;;;0.45;63.65;100735.31;4934470;28;20065;-84
2023/03/01 07:04:12;;;;;;;37.75;15.98;;;;;;;0.38;63.61;100729.41;4961597;28;20035;-84
2023/03/01 07:06:39;;;;;;;35.83;15.13;;;;;;;0.43;63.56;100730.13;4948341;28;20043;-84
2023/03/01 07:09:06;;;;;;;35.10;14.65;;;;;;;0.53;63.29;100722.84;4979273;28;20392;-84
2023/03/01 07:11:33;;;;;;;41.00;16.85;;;;;;;0.42;63.43;100731.03;4976008;28;20046;-84
2023/03/01 07:13:59;;;;;;;33.38;14.95;;;;;;;0.59;63.22;100726.13;4959949;28;20043;-85
2023/03/01 07:16:26;;;;;;;41.25;16.73;;;;;;;0.50;63.23;100722.94;4959058;28;20062;-84
2023/03/01 07:18:54;;;;;;;35.47;16.45;;;;;;;0.51;63.36;100720.31;4965077;28;20137;-84
2023/03/01 07:21:20;;;;;;;39.28;16.45;;;;;;;0.52;63.43;100713.31;4962774;28;20556;-84
2023/03/01 07:23:48;;;;;;;35.72;14.90;;;;;;;0.61;63.33;100721.72;4962087;28;20495;-84
2023/03/01 07:26:15;;;;;;;37.22;15.43;;;;;;;0.69;62.93;100715.34;4960045;28;20069;-84
2023/03/01 07:28:41;;;;;;;32.65;16.15;;;;;;;0.72;62.80;100721.34;4949159;28;20457;-84
2023/03/01 07:31:08;;;;;;;32.80;14.10;;;;;;;0.74;62.67;100709.06;4963078;28;20050;-85
2023/03/01 07:33:35;;;;;;;34.03;15.10;;;;;;;0.72;62.69;100713.50;4955942;28;20043;-84
2023/03/01 07:36:03;;;;;;;41.42;16.48;;;;;;;0.75;62.49;100713.38;4974488;28;20050;-83
2023/03/01 07:38:31;;;;;;;31.45;15.80;;;;;;;0.75;62.36;100717.78;4974511;28;20050;-84
2023/03/01 07:41:02;;;;;;;33.72;15.32;;;;;;;0.69;62.46;100723.19;4978498;28;20053;-84
2023/03/01 07:43:30;;;;;;;26.27;12.90;;;;;;;0.71;62.61;100703.94;4966798;28;20066;-84
2023/03/01 07:46:00;;;;;;;34.45;14.93;;;;;;;0.76;62.52;100703.78;4973301;28;20573;-83
2023/03/01 07:48:29;;;;;;;35.50;15.07;;;;;;;0.76;62.77;100701.16;4968787;28;20507;-84
2023/03/01 07:51:03;;;;;;;35.20;15.68;;;;;;;0.69;62.91;100707.50;4963496;28;20053;-84
2023/03/01 07:53:31;;;;;;;30.40;13.65;;;;;;;0.79;62.56;100701.94;4960192;28;20046;-84
2023/03/01 07:56:11;;;;;;;44.28;16.55;;;;;;;0.78;63.10;100708.06;4963110;28;20486;-84
2023/03/01 07:58:40;;;;;;;37.72;14.90;;;;;;;0.86;62.81;100705.16;4968539;28;20121;-84
2023/03/01 08:01:09;;;;;;;34.83;15.07;;;;;;;0.77;63.04;100695.06;4943266;28;20052;-84
2023/03/01 08:03:36;;;;;;;33.80;15.45;;;;;;;0.92;62.68;100702.38;4960913;28;20042;-83
2023/03/01 08:06:05;;;;;;;33.13;15.05;;;;;;;0.94;62.96;100700.56;4953308;28;20449;-84
2023/03/01 08:08:32;;;;;;;34.35;15.27;;;;;;;0.94;62.72;100700.56;4943354;28;20043;-83
2023/03/01 08:11:00;;;;;;;33.50;15.27;;;;;;;0.92;62.97;100704.13;4975547;28;20498;-84
2023/03/01 08:13:28;;;;;;;28.33;14.07;;;;;;;0.91;62.02;100699.78;4959051;28;20113;-83
2023/03/01 08:15:54;;;;;;;31.75;15.07;;;;;;;0.84;62.35;100705.25;4967697;28;20513;-83
2023/03/01 08:18:21;;;;;;;32.55;14.38;;;;;;;0.92;62.42;100702.38;4973454;28;20129;-83
2023/03/01 08:20:48;;;;;;;32.30;15.00;;;;;;;0.96;62.18;100693.47;4958096;28;20045;-83
2023/03/01 08:23:15;;;;;;;31.73;14.25;;;;;;;0.98;62.46;100698.69;4959858;28;20053;-83
2023/03/01 08:25:42;;;;;;;36.20;14.15;;;;;;;1.00;62.40;100689.88;4963695;28;20443;-83
2023/03/01 08:28:08;;;;;;;30.10;14.85;;;;;;;0.99;62.91;100684.69;4975046;28;20414;-83
2023/03/01 08:30:35;;;;;;;36.97;15.95;;;;;;;1.10;62.77;100692.16;4959580;28;20046;-83
2023/03/01 08:33:02;;;;;;;36.05;13.63;;;;;;;1.12;62.10;100672.91;4976169;28;20123;-83
2023/03/01 08:35:28;;;;;;;34.33;14.55;;;;;;;1.07;62.26;100680.06;4961850;28;20465;-83
2023/03/01 08:37:55;;;;;;;33.13;15.50;;;;;;;1.11;61.95;100686.03;4956583;28;20070;-82
2023/03/01 08:40:22;;;;;;;38.85;15.23;;;;;;;1.20;61.90;100681.31;4977127;28;20518;-83
2023/03/01 08:42:49;;;;;;;34.75;14.95;;;;;;;1.21;62.26;100685.63;4963017;28;21141;-84
2023/03/01 08:45:18;;;;;;;38.60;15.80;;;;;;;1.22;62.14;100676.88;4949318;28;20116;-83
2023/03/01 08:47:45;;;;;;;30.88;15.75;;;;;;;1.35;61.58;100681.66;4974658;28;20042;-83
2023/03/01 08:50:12;;;;;;;35.22;15.48;;;;;;;1.34;61.58;100679.94;4964646;28;20548;-82
2023/03/01 08:52:38;;;;;;;32.55;13.90;;;;;;;1.37;62.11;100678.06;4951236;28;20043;-83
2023/03/01 08:55:06;;;;;;;37.63;16.17;;;;;;;1.45;61.78;100675.16;4976180;28;20405;-83
2023/03/01 08:57:32;;;;;;;36.33;15.50;;;;;;;1.48;60.69;100677.69;4943546;28;20043;-83
2023/03/01 08:59:59;;;;;;;38.20;16.38;;;;;;;1.50;61.22;100666.25;4974764;28;20046;-83
2023/03/01 09:02:26;;;;;;;38.78;16.25;;;;;;;1.56;60.97;100672.16;4983018;28;20657;-83
2023/03/01 09:04:53;;;;;;;38.70;16.63;;;;;;;1.52;61.03;100674.03;4957969;28;20121;-81
2023/03/01 09:07:19;;;;;;;35.78;15.10;;;;;;;1.56;61.23;100657.31;4959407;28;20060;-83
2023/03/01 09:09:46;;;;;;;33.35;16.27;;;;;;;1.55;61.29;100663.44;4970613;28;20050;-82
2023/03/01 09:12:13;;;;;;;35.20;14.52;;;;;;;1.61;60.91;100660.59;4968503;28;20507;-83
2023/03/01 09:14:41;;;;;;;37.95;15.65;;;;;;;1.64;61.21;100654.41;4964792;28;20118;-83
2023/03/01 09:17:07;;;;;;;32.55;15.38;;;;;;;1.73;60.92;100656.63;4934212;28;20043;-83
2023/03/01 09:19:34;;;;;;;33.42;14.85;;;;;;;1.74;61.76;100656.59;4960843;28;20145;-83
2023/03/01 09:22:03;;;;;;;37.25;15.57;;;;;;;1.71;60.67;100653.25;4962274;28;20073;-83
2023/03/01 09:24:30;;;;;;;34.65;15.05;;;;;;;1.76;61.31;100640.00;4976922;28;20125;-82
2023/03/01 09:26:57;;;;;;;28.13;14.73;;;;;;;1.85;61.57;100640.44;4971751;28;20046;-82
2023/03/01 09:29:24;;;;;;;35.97;16.25;;;;;;;1.87;61.88;100624.69;4976603;28;20517;-83
2023/03/01 09:31:50;;;;;;;33.72;16.48;;;;;;;1.95;60.91;100635.72;4958170;28;20037;-83
2023/03/01 09:34:22;;;;;;;40.95;16.25;;;;;;;1.93;60.31;100637.53;4973589;28;20051;-82
2023/03/01 09:36:50;;;;;;;34.85;15.52;;;;;;;1.94;61.16;100636.63;4929834;28;20042;-83
2023/03/01 09:39:18;;;;;;;37.08;16.25;;;;;;;2.04;61.58;100637.97;4960799;28;20505;-82
2023/03/01 09:42:03;;;;;;;33.22;15.07;;;;;;;2.04;61.04;100622.25;4951496;28;20126;-83
2023/03/01 09:44:42;;;;;;;37.42;16.25;;;;;;;2.09;61.03;100624.69;4979123;28;20371;-82
2023/03/01 09:47:29;;;;;;;32.55;15.93;;;;;;;2.12;60.56;100622.78;4964944;28;20050;-82
2023/03/01 09:50:11;;;;;;;32.50;14.10;;;;;;;2.16;60.68;100608.66;4955728;28;20051;-82
2023/03/01 09:52:39;;;;;;;37.85;16.08;;;;;;;2.28;60.99;100609.91;4975162;28;20057;-83
2023/03/01 09:55:15;;;;;;;35.65;15.93;;;;;;;2.35;59.64;100605.25;4957871;28;20035;-82
2023/03/01 09:57:49;;;;;;;29.17;14.73;;;;;;;2.28;59.99;100606.44;4933370;28;20046;-83
2023/03/01 10:00:45;;;;;;;33.83;16.77;;;;;;;2.20;59.29;100612.00;4966954;28;20046;-82
2023/03/01 10:03:13;;;;;;;30.98;14.73;;;;;;;2.28;60.27;100615.13;4970366;28;20565;-82
2023/03/01 10:06:11;;;;;;;29.73;14.95;;;;;;;2.29;60.06;100603.75;4965238;28;20505;-82
2023/03/01 10:08:58;;;;;;;36.28;15.90;;;;;;;2.28;60.37;100590.72;4882169;28;20050;-83
2023/03/01 10:11:31;;;;;;;35.90;16.25;;;;;;;2.27;60.65;100597.72;4969571;28;20046;-82
2023/03/01 10:14:24;;;;;;;36.22;16.08;;;;;;;2.41;60.40;100601.53;4957937;28;20053;-82
2023/03/01 10:17:07;;;;;;;29.20;14.20;;;;;;;2.35;60.25;100593.00;4963230;28;20407;-81
2023/03/01 10:19:38;;;;;;;34.80;16.17;;;;;;;2.38;61.38;100597.25;4980352;28;20042;-82
2023/03/01 10:22:16;;;;;;;33.85;15.00;;;;;;;2.42;60.56;100587.50;4953127;28;20048;-82
2023/03/01 10:24:43;;;;;;;30.33;13.98;;;;;;;2.51;60.00;100587.97;4960981;28;20050;-82
2023/03/01 10:27:46;;;;;;;34.85;15.90;;;;;;;2.45;59.05;100593.47;4976026;28;20042;-81
2023/03/01 10:30:16;;;;;;;35.75;16.60;;;;;;;2.51;59.16;100584.50;4877312;28;20050;-82
2023/03/01 10:32:44;;;;;;;31.08;15.43;;;;;;;2.50;60.46;100586.25;4955767;28;20481;-82
2023/03/01 10:35:21;;;;;;;35.05;14.82;;;;;;;2.60;59.93;100576.22;4967608;28;20132;-82
2023/03/01 10:38:09;;;;;;;30.33;14.32;;;;;;;2.63;59.40;100568.22;4970338;28;20130;-82
2023/03/01 10:40:49;;;;;;;34.58;15.95;;;;;;;2.67;59.54;100577.69;4965442;28;20490;-82
2023/03/01 10:43:17;;;;;;;34.83;16.73;;;;;;;2.71;59.99;100565.28;4966065;28;20580;-82
2023/03/01 10:45:43;;;;;;;34.65;16.52;;;;;;;2.68;60.72;100563.63;4954695;28;20046;-82
2023/03/01 10:48:17;;;;;;;34.88;16.73;;;;;;;2.77;60.24;100547.50;4974618;28;20525;-82
2023/03/01 10:50:47;;;;;;;;;;;;;;;2.74;60.00;100552.84;4976426;28;20046;-82
2023/03/01 10:53:28;;;;;;;35.45;16.15;;;;;;;2.77;59.91;100555.38;4973698;28;19933;-82
2023/03/01 10:56:04;;;;;;;36.20;17.20;;;;;;;2.85;60.32;100554.16;4951219;28;20101;-82
2023/03/01 10:58:31;;;;;;;35.47;15.98;;;;;;;2.91;59.29;100548.66;4978080;28;20046;-82
2023/03/01 11:01:01;;;;;;;35.53;16.15;;;;;;;2.87;59.43;100553.16;4964511;28;20617;-82
2023/03/01 11:03:31;;;;;;;33.28;16.20;;;;;;;2.98;59.88;100537.81;4950753;28;20053;-82
2023/03/01 11:06:02;;;;;;;35.45;15.82;;;;;;;2.94;59.21;100532.75;4976149;28;20402;-82
2023/03/01 11:08:34;;;;;;;34.65;15.40;;;;;;;2.96;59.36;100529.16;4979602;28;20498;-82
2023/03/01 11:11:22;;;;;;;28.03;14.27;;;;;;;3.00;58.90;100520.22;4960926;28;20442;-82
2023/03/01 11:14:06;;;;;;;35.45;16.80;;;;;;;3.02;59.62;100520.97;4990964;28;20529;-82
2023/03/01 11:17:05;;;;;;;32.83;15.25;;;;;;;3.06;60.28;100510.38;4960982;28;20042;-82
2023/03/01 11:19:32;;;;;;;33.25;16.23;;;;;;;3.15;59.22;100509.91;4980119;28;20047;-82
2023/03/01 11:22:20;;;;;;;37.28;16.27;;;;;;;3.17;59.48;100514.19;4947814;28;20152;-82
2023/03/01 11:24:49;;;;;;;32.97;15.90;;;;;;;3.24;59.04;100526.09;4957731;28;20046;-82
2023/03/01 11:27:35;;;;;;;36.38;16.70;;;;;;;3.28;58.80;100511.03;4949288;28;20403;-82
2023/03/01 11:30:24;;;;;;;31.35;15.85;;;;;;;3.32;57.85;100507.34;4953515;28;20050;-82
2023/03/01 11:33:14;;;;;;;31.98;16.05;;;;;;;3.34;58.13;100502.03;4980788;28;20062;-82